Time;durP1;ratioP1;P1;durP2;ratioP2;P2;SDS_P1;SDS_P2;PMS_P1;PMS_P2;Temp;Humidity;BMP_temperature;BMP_pressure;BME280_temperature;BME280_humidity;BME280_pressure;Samples;Min_cycle;Max_cycle;Signal;HPM_P1;HPM_P2
2022/12/01 00:00:53;;;;;;;98.20;43.27;;;3.80;99.90;;;;;;5004679;28;38430;-72
2022/12/01 00:03:21;;;;;;;83.70;39.80;;;3.70;99.90;;;;;;5006777;28;38532;-73
2022/12/01 00:05:56;;;;;;;78.33;38.27;;;3.70;99.90;;;;;;5004456;28;38763;-73
2022/12/01 00:08:22;;;;;;;92.03;40.50;;;3.70;99.90;;;;;;5006043;28;36164;-73
2022/12/01 00:10:48;;;;;;;80.17;38.90;;;3.60;99.90;;;;;;5007201;28;38559;-72
2022/12/01 00:13:14;;;;;;;85.30;40.60;;;3.60;99.90;;;;;;5003806;28;38424;-72
2022/12/01 00:15:40;;;;;;;72.90;36.50;;;3.50;99.90;;;;;;5004199;28;37855;-72
2022/12/01 00:18:06;;;;;;;90.07;39.30;;;3.50;99.90;;;;;;5001767;28;37536;-73
2022/12/01 00:20:33;;;;;;;73.57;35.53;;;3.40;99.90;;;;;;5005374;28;38846;-73
2022/12/01 00:23:01;;;;;;;90.50;40.90;;;3.40;99.90;;;;;;5010110;28;39383;-73
2022/12/01 00:25:28;;;;;;;76.90;39.93;;;3.30;99.90;;;;;;5023767;28;37022;-73
2022/12/01 00:27:54;;;;;;;78.37;37.63;;;3.30;99.90;;;;;;5013154;28;37036;-72
2022/12/01 00:30:21;;;;;;;85.83;40.77;;;3.30;99.90;;;;;;5009436;28;37498;-73
2022/12/01 00:32:48;;;;;;;78.33;38.93;;;3.20;99.90;;;;;;5008869;28;38384;-73
2022/12/01 00:35:15;;;;;;;79.80;38.50;;;3.20;99.90;;;;;;5008050;28;39204;-73
2022/12/01 00:37:42;;;;;;;73.83;36.50;;;3.20;99.90;;;;;;5003074;28;36403;-73
2022/12/01 00:40:09;;;;;;;87.57;39.07;;;3.20;99.90;;;;;;5010735;28;39610;-73
2022/12/01 00:42:36;;;;;;;82.20;38.73;;;3.20;99.90;;;;;;5009582;28;36820;-73
2022/12/01 00:45:03;;;;;;;75.53;36.37;;;3.20;99.90;;;;;;5005325;28;37959;-73
2022/12/01 00:47:29;;;;;;;76.27;37.33;;;3.20;99.90;;;;;;5007352;28;36145;-73
2022/12/01 00:49:56;;;;;;;75.03;36.73;;;3.10;99.90;;;;;;5010178;28;38552;-73
2022/12/01 00:52:22;;;;;;;81.27;38.73;;;3.00;99.90;;;;;;5014936;28;37622;-73
2022/12/01 00:54:48;;;;;;;85.70;40.70;;;3.00;99.90;;;;;;5013928;28;37856;-73
2022/12/01 00:57:14;;;;;;;84.13;40.37;;;3.00;99.90;;;;;;5012957;28;36263;-73
2022/12/01 00:59:40;;;;;;;78.30;37.40;;;3.20;99.90;;;;;;5015021;28;39659;-73
2022/12/01 01:02:07;;;;;;;72.03;37.63;;;3.20;99.90;;;;;;5013219;28;37977;-73
2022/12/01 01:04:35;;;;;;;75.80;36.73;;;3.30;99.90;;;;;;5012580;28;36523;-73
2022/12/01 01:07:01;;;;;;;85.80;40.23;;;3.30;99.90;;;;;;5011421;28;36401;-73
2022/12/01 01:09:27;;;;;;;80.33;37.23;;;3.40;99.90;;;;;;5012729;28;49051;-73
2022/12/01 01:11:54;;;;;;;80.53;38.17;;;3.50;99.90;;;;;;5008279;28;36001;-73
2022/12/01 01:14:21;;;;;;;85.40;39.43;;;3.50;99.90;;;;;;5007464;28;36609;-73
2022/12/01 01:16:48;;;;;;;102.10;44.63;;;3.50;99.90;;;;;;5013061;28;38374;-73
2022/12/01 01:19:15;;;;;;;106.17;46.97;;;3.50;99.90;;;;;;5020603;28;39952;-73
2022/12/01 01:21:42;;;;;;;118.57;48.27;;;3.60;99.90;;;;;;5027967;28;37287;-73
2022/12/01 01:24:08;;;;;;;109.00;45.03;;;3.70;99.90;;;;;;5007733;28;37516;-73
2022/12/01 01:26:35;;;;;;;95.30;43.03;;;3.70;99.90;;;;;;5011019;28;37383;-73
2022/12/01 01:29:04;;;;;;;97.90;42.80;;;3.80;99.90;;;;;;5000354;28;37655;-73
2022/12/01 01:31:31;;;;;;;95.03;43.00;;;3.90;99.90;;;;;;5021948;28;48451;-72
2022/12/01 01:33:57;;;;;;;87.47;41.50;;;4.00;99.90;;;;;;5009485;28;37673;-75
2022/12/01 01:36:24;;;;;;;96.13;43.23;;;4.10;99.90;;;;;;5012990;28;37603;-75
2022/12/01 01:38:50;;;;;;;100.10;44.50;;;4.20;99.90;;;;;;5008622;28;37597;-75
2022/12/01 01:41:17;;;;;;;124.40;48.57;;;4.30;99.90;;;;;;5004010;28;38548;-75
2022/12/01 01:43:47;;;;;;;98.30;46.57;;;4.40;99.90;;;;;;5012219;28;38326;-74
2022/12/01 01:46:25;;;;;;;95.13;45.77;;;4.50;99.90;;;;;;5018894;28;35910;-75
2022/12/01 01:49:08;;;;;;;111.10;47.50;;;4.60;99.90;;;;;;5009399;28;38129;-74
2022/12/01 01:51:42;;;;;;;123.53;49.95;;;4.60;99.90;;;;;;5025521;28;47313;-75
2022/12/01 01:54:25;;;;;;;124.63;53.53;;;4.70;99.90;;;;;;5010561;28;38141;-75
2022/12/01 01:56:53;;;;;;;105.87;47.07;;;4.70;99.90;;;;;;5011146;28;37942;-75
2022/12/01 01:59:25;;;;;;;124.60;51.90;;;4.70;99.90;;;;;;5010879;28;37140;-75
2022/12/01 02:02:02;;;;;;;111.93;49.58;;;4.70;99.90;;;;;;5426709;22;37141;-78
2022/12/01 02:04:34;;;;;;;107.77;48.63;;;4.80;99.90;;;;;;4988742;28;47533;-78
2022/12/01 02:07:00;;;;;;;109.40;49.37;;;4.80;99.90;;;;;;5000008;28;37081;-77
2022/12/01 02:09:26;;;;;;;122.70;51.17;;;4.80;99.90;;;;;;5004857;28;38517;-78
2022/12/01 02:12:23;;;;;;;143.83;55.07;;;4.80;99.90;;;;;;5003502;28;38798;-78
2022/12/01 02:15:05;;;;;;;98.60;45.30;;;4.70;99.90;;;;;;5003612;28;47014;-78
2022/12/01 02:17:54;;;;;;;117.22;49.40;;;4.70;99.90;;;;;;5015963;28;47082;-78
2022/12/01 02:20:39;;;;;;;88.53;41.67;;;4.70;99.90;;;;;;5004257;28;39037;-78
2022/12/01 02:23:20;;;;;;;88.00;41.93;;;4.60;99.90;;;;;;5006314;28;37025;-77
2022/12/01 02:26:09;;;;;;;130.50;52.93;;;4.70;99.90;;;;;;5025126;28;37001;-78
2022/12/01 02:28:51;;;;;;;140.07;55.80;;;4.70;99.90;;;;;;5005666;28;47041;-78
2022/12/01 02:31:41;;;;;;;155.57;58.40;;;4.80;99.90;;;;;;5023372;28;37593;-77
2022/12/01 02:34:22;;;;;;;133.60;54.67;;;4.90;99.90;;;;;;5018942;28;37131;-78
2022/12/01 02:36:56;;;;;;;138.90;54.70;;;4.90;99.90;;;;;;5004395;28;38684;-78
2022/12/01 02:39:31;;;;;;;125.53;53.40;;;4.90;99.90;;;;;;5004461;28;36238;-78
2022/12/01 02:42:47;;;;;;;116.17;50.23;;;4.90;99.90;;;;;;5009997;28;37841;-78
2022/12/01 02:45:02;;;;;;;;;;;4.80;99.90;;;;;;5011882;28;48577;-78
2022/12/01 02:47:29;;;;;;;148.63;52.87;;;4.80;99.90;;;;;;5008308;28;38953;-78
2022/12/01 02:49:57;;;;;;;137.80;54.40;;;4.70;99.90;;;;;;5006914;28;35504;-78
2022/12/01 02:52:25;;;;;;;139.77;55.30;;;4.70;99.90;;;;;;5023796;28;37747;-77
2022/12/01 02:54:52;;;;;;;138.30;56.00;;;4.70;99.90;;;;;;5013876;28;38284;-78
2022/12/01 02:57:22;;;;;;;122.43;50.43;;;4.60;99.90;;;;;;5016038;28;37305;-78
2022/12/01 02:59:53;;;;;;;148.40;55.63;;;4.50;99.90;;;;;;5021458;28;37045;-78
2022/12/01 03:02:31;;;;;;;143.17;53.37;;;4.40;99.90;;;;;;5009365;28;39147;-78
2022/12/01 03:05:38;;;;;;;112.10;45.80;;;4.20;99.90;;;;;;5007673;28;39646;-77
2022/12/01 03:08:44;;;;;;;114.27;48.07;;;4.20;99.90;;;;;;5005099;28;48191;-78
2022/12/01 03:11:25;;;;;;;138.13;54.27;;;4.10;99.90;;;;;;5007795;28;37347;-77
2022/12/01 03:14:15;;;;;;;124.33;49.63;;;4.20;99.90;;;;;;5017597;28;39570;-78
2022/12/01 03:16:52;;;;;;;140.27;51.73;;;4.30;99.90;;;;;;5008682;28;48012;-76
2022/12/01 03:19:18;;;;;;;119.50;50.83;;;4.30;99.90;;;;;;5010733;28;36853;-76
2022/12/01 03:22:00;;;;;;;117.87;48.57;;;4.30;99.90;;;;;;5011087;28;37086;-77
2022/12/01 03:24:30;;;;;;;133.98;54.58;;;4.20;99.90;;;;;;5009608;28;39023;-76
2022/12/01 03:26:59;;;;;;;165.47;58.60;;;4.40;99.90;;;;;;5000436;28;38494;-76
2022/12/01 03:29:32;;;;;;;131.23;51.03;;;4.40;99.90;;;;;;5013160;28;38986;-75
2022/12/01 03:32:11;;;;;;;128.33;51.10;;;4.40;99.90;;;;;;5012284;28;36337;-77
2022/12/01 03:34:50;;;;;;;118.50;49.93;;;4.40;99.90;;;;;;5014714;28;48847;-77
2022/12/01 03:37:23;;;;;;;140.00;54.07;;;4.40;99.90;;;;;;5010176;28;38851;-77
2022/12/01 03:39:53;;;;;;;170.07;55.73;;;4.50;99.90;;;;;;5008660;28;37073;-78
2022/12/01 03:42:32;;;;;;;167.83;58.87;;;4.40;99.90;;;;;;5025580;28;37097;-78
2022/12/01 03:45:03;;;;;;;114.43;47.77;;;4.40;99.90;;;;;;5027075;28;39174;-78
2022/12/01 03:47:31;;;;;;;123.20;51.50;;;4.30;99.90;;;;;;5009330;28;49895;-77
2022/12/01 03:49:59;;;;;;;142.90;55.77;;;4.30;99.90;;;;;;5022155;28;39638;-77
2022/12/01 03:52:35;;;;;;;114.07;49.73;;;4.20;99.90;;;;;;5012099;28;36184;-78
2022/12/01 03:55:19;;;;;;;141.20;53.13;;;4.10;99.90;;;;;;5012445;28;39285;-78
2022/12/01 03:58:05;;;;;;;123.13;51.43;;;4.00;99.90;;;;;;5010466;28;48817;-76
2022/12/01 04:00:34;;;;;;;178.30;63.13;;;4.10;99.90;;;;;;5005104;28;48357;-76
2022/12/01 04:03:02;;;;;;;126.50;51.50;;;4.10;99.90;;;;;;5008733;28;38897;-75
2022/12/01 04:05:30;;;;;;;147.47;54.07;;;4.10;99.90;;;;;;5012390;28;49045;-76
2022/12/01 04:07:56;;;;;;;148.33;55.47;;;4.00;99.90;;;;;;5007709;28;37107;-76
2022/12/01 04:10:22;;;;;;;110.10;46.97;;;3.90;99.90;;;;;;5015288;28;38276;-76
2022/12/01 04:12:48;;;;;;;132.60;51.93;;;3.80;99.90;;;;;;5029589;28;35903;-76
2022/12/01 04:15:15;;;;;;;145.57;55.47;;;3.80;99.90;;;;;;5013626;28;38997;-76
2022/12/01 04:17:43;;;;;;;131.03;50.03;;;3.80;99.90;;;;;;5017449;28;39561;-76
2022/12/01 04:20:11;;;;;;;170.50;57.40;;;3.80;99.90;;;;;;5026956;28;38018;-76
2022/12/01 04:22:38;;;;;;;145.33;55.50;;;3.80;99.90;;;;;;5010749;28;37077;-76
2022/12/01 04:25:05;;;;;;;130.50;50.03;;;3.80;99.90;;;;;;5015993;28;38750;-76
2022/12/01 04:27:32;;;;;;;123.03;46.93;;;3.80;99.90;;;;;;5009244;28;48844;-76
2022/12/01 04:29:58;;;;;;;128.63;50.13;;;3.70;99.90;;;;;;5009936;28;37921;-76
2022/12/01 04:32:25;;;;;;;154.07;55.10;;;3.70;99.90;;;;;;5008831;28;37186;-76
2022/12/01 04:34:51;;;;;;;118.37;48.43;;;3.60;99.90;;;;;;5015797;28;38514;-76
2022/12/01 04:37:19;;;;;;;148.47;52.63;;;3.50;99.90;;;;;;5008133;28;37006;-76
2022/12/01 04:39:45;;;;;;;135.83;51.30;;;3.40;99.90;;;;;;5009996;28;38413;-76
2022/12/01 04:42:11;;;;;;;111.17;47.13;;;3.40;99.90;;;;;;5019945;28;37624;-76
2022/12/01 04:44:37;;;;;;;116.07;49.50;;;3.30;99.90;;;;;;5006313;28;37902;-75
2022/12/01 04:47:07;;;;;;;124.43;50.37;;;3.40;99.90;;;;;;5007789;28;37446;-75
2022/12/01 04:49:35;;;;;;;112.17;48.83;;;3.50;99.90;;;;;;5006552;28;37910;-75
2022/12/01 04:52:02;;;;;;;124.57;49.90;;;3.50;99.90;;;;;;5007608;28;37644;-75
2022/12/01 04:54:28;;;;;;;142.30;54.37;;;3.50;99.90;;;;;;5016425;28;49508;-75
2022/12/01 04:56:54;;;;;;;123.33;50.93;;;3.50;99.90;;;;;;5010384;28;38369;-76
2022/12/01 04:59:20;;;;;;;105.93;47.93;;;3.50;99.90;;;;;;5018235;28;36808;-76
2022/12/01 05:01:47;;;;;;;116.47;48.57;;;3.50;99.90;;;;;;5008884;28;37653;-75
2022/12/01 05:04:14;;;;;;;142.43;51.83;;;3.50;99.90;;;;;;5019221;28;38534;-76
2022/12/01 05:06:40;;;;;;;111.87;49.20;;;3.40;99.90;;;;;;5011642;28;39491;-76
2022/12/01 05:09:09;;;;;;;136.37;52.27;;;3.50;99.90;;;;;;5010270;28;37220;-76
2022/12/01 05:11:36;;;;;;;113.13;47.77;;;3.40;99.90;;;;;;5009695;28;38455;-75
2022/12/01 05:14:02;;;;;;;113.73;48.20;;;3.40;99.90;;;;;;5010636;28;38594;-75
2022/12/01 05:16:33;;;;;;;119.73;47.83;;;3.30;99.90;;;;;;5006494;28;47125;-76
2022/12/01 05:21:49;;;;;;;99.13;44.80;;;3.30;99.90;;;;;;5011724;28;49530;-75
2022/12/01 05:24:16;;;;;;;147.57;53.37;;;3.40;99.90;;;;;;5008325;28;38888;-76
2022/12/01 05:26:43;;;;;;;120.83;48.10;;;3.40;99.90;;;;;;5004501;28;39046;-75
2022/12/01 05:29:11;;;;;;;119.50;50.87;;;3.50;99.90;;;;;;5003092;28;38582;-75
2022/12/01 05:31:38;;;;;;;124.33;49.93;;;3.60;99.90;;;;;;5005328;28;37433;-76
2022/12/01 05:34:05;;;;;;;130.20;52.73;;;3.80;99.90;;;;;;5009701;28;38936;-75
2022/12/01 05:36:31;;;;;;;171.20;59.40;;;3.90;99.90;;;;;;5007933;28;37640;-75
2022/12/01 05:38:57;;;;;;;125.00;52.37;;;4.00;99.90;;;;;;5016929;28;38552;-76
2022/12/01 05:41:23;;;;;;;160.83;57.67;;;4.10;99.90;;;;;;5014217;28;38652;-76
2022/12/01 05:43:50;;;;;;;126.70;49.73;;;4.10;99.90;;;;;;5010660;28;38563;-76
2022/12/01 05:46:16;;;;;;;152.67;56.10;;;4.10;99.90;;;;;;5010812;28;38136;-77
2022/12/01 05:48:42;;;;;;;169.33;58.90;;;4.10;99.90;;;;;;5010735;28;39240;-77
2022/12/01 05:51:13;;;;;;;113.53;47.53;;;4.20;99.90;;;;;;5011457;28;37558;-77
2022/12/01 05:53:39;;;;;;;124.57;51.47;;;4.20;99.90;;;;;;5011996;28;38774;-77
2022/12/01 05:56:06;;;;;;;161.70;58.90;;;4.30;99.90;;;;;;5010214;28;38190;-78
2022/12/01 05:58:33;;;;;;;115.50;50.37;;;4.30;99.90;;;;;;5000390;28;37018;-76
2022/12/01 06:01:02;;;;;;;169.17;57.43;;;4.30;99.90;;;;;;5007985;28;36473;-77
2022/12/01 06:03:28;;;;;;;118.70;52.53;;;4.30;99.90;;;;;;5025420;28;39956;-77
2022/12/01 06:05:54;;;;;;;134.13;51.07;;;4.30;99.90;;;;;;5008887;28;38354;-78
2022/12/01 06:08:20;;;;;;;155.13;54.43;;;4.20;99.90;;;;;;5004619;28;36550;-78
2022/12/01 06:10:46;;;;;;;144.27;55.13;;;4.10;99.90;;;;;;5010834;28;37104;-78
2022/12/01 06:13:12;;;;;;;151.00;54.57;;;4.00;99.90;;;;;;5013340;28;40088;-77
2022/12/01 06:15:38;;;;;;;153.80;55.00;;;3.80;99.90;;;;;;5010918;28;37289;-77
2022/12/01 06:18:05;;;;;;;161.00;55.50;;;3.60;99.90;;;;;;5007521;28;37278;-78
2022/12/01 06:20:31;;;;;;;93.83;43.23;;;3.50;99.90;;;;;;5010756;28;36963;-76
2022/12/01 06:22:58;;;;;;;102.97;45.13;;;3.40;99.90;;;;;;5011323;28;39498;-76
2022/12/01 06:25:24;;;;;;;126.60;49.87;;;3.30;99.90;;;;;;5004451;28;37082;-77
2022/12/01 06:27:57;;;;;;;112.70;45.97;;;3.30;99.90;;;;;;5006760;28;38070;-76
2022/12/01 06:30:24;;;;;;;110.27;46.77;;;3.30;99.90;;;;;;5016062;28;36176;-77
2022/12/01 06:32:50;;;;;;;126.57;48.47;;;3.40;99.90;;;;;;5002000;28;38897;-76
2022/12/01 06:35:16;;;;;;;104.87;46.60;;;3.50;99.90;;;;;;5000909;28;37528;-77
2022/12/01 06:37:42;;;;;;;138.20;52.07;;;3.50;99.90;;;;;;5040374;22;36987;-79
2022/12/01 06:40:09;;;;;;;111.53;46.13;;;3.40;99.90;;;;;;5027684;28;37849;-78
2022/12/01 06:42:35;;;;;;;110.90;45.23;;;3.40;99.90;;;;;;5015441;28;40482;-80
2022/12/01 06:45:02;;;;;;;121.73;49.23;;;3.40;99.90;;;;;;5018885;28;35429;-79
2022/12/01 06:47:28;;;;;;;137.80;52.07;;;3.50;99.90;;;;;;5015812;28;38238;-79
2022/12/01 06:49:54;;;;;;;121.73;47.87;;;3.50;99.90;;;;;;5015828;28;36514;-79
2022/12/01 06:52:20;;;;;;;143.23;53.50;;;3.50;99.90;;;;;;5010838;28;38740;-78
2022/12/01 06:54:46;;;;;;;141.33;53.03;;;3.50;99.90;;;;;;5007692;28;38446;-78
2022/12/01 06:57:12;;;;;;;133.10;51.00;;;3.50;99.90;;;;;;4999567;28;38098;-80
2022/12/01 06:59:38;;;;;;;134.53;51.13;;;3.50;99.90;;;;;;5028201;28;37126;-80
2022/12/01 07:02:05;;;;;;;134.47;51.17;;;3.50;99.90;;;;;;5007141;28;40013;-79
2022/12/01 07:04:31;;;;;;;141.97;51.40;;;3.60;99.90;;;;;;5013728;28;38229;-78
2022/12/01 07:06:57;;;;;;;144.73;52.80;;;3.60;99.90;;;;;;5013457;28;38618;-79
2022/12/01 07:09:26;;;;;;;124.23;49.10;;;3.70;99.90;;;;;;5020970;28;37596;-79
2022/12/01 07:11:52;;;;;;;130.57;50.27;;;3.80;99.90;;;;;;5023935;28;40636;-79
2022/12/01 07:14:26;;;;;;;149.63;55.10;;;3.80;99.90;;;;;;5025394;28;37288;-80
2022/12/01 07:16:53;;;;;;;171.73;58.47;;;3.80;99.90;;;;;;5028052;28;38405;-80
2022/12/01 07:19:20;;;;;;;193.17;63.97;;;3.90;99.90;;;;;;5025207;28;36536;-80
2022/12/01 07:21:46;;;;;;;172.20;58.13;;;3.80;99.90;;;;;;5025273;28;38000;-80
2022/12/01 07:24:13;;;;;;;164.77;56.93;;;3.80;99.90;;;;;;5024663;28;38950;-80
2022/12/01 07:26:40;;;;;;;126.53;53.57;;;3.80;99.90;;;;;;5020912;28;39592;-80
2022/12/01 07:29:07;;;;;;;124.83;51.77;;;3.70;99.90;;;;;;5015938;28;36958;-80
2022/12/01 07:31:34;;;;;;;151.30;54.37;;;3.70;99.90;;;;;;5021396;28;48201;-80
2022/12/01 07:34:00;;;;;;;154.27;56.70;;;3.60;99.90;;;;;;5016929;28;39463;-79
2022/12/01 07:36:26;;;;;;;149.33;53.67;;;3.60;99.90;;;;;;5012132;28;38920;-79
2022/12/01 07:38:52;;;;;;;137.33;51.93;;;3.60;99.90;;;;;;5043052;28;35775;-80
2022/12/01 07:41:19;;;;;;;138.70;51.83;;;3.50;99.90;;;;;;5019334;28;39334;-79
2022/12/01 07:43:46;;;;;;;152.13;54.07;;;3.50;99.90;;;;;;5020703;28;39087;-79
2022/12/01 07:46:13;;;;;;;175.80;58.87;;;3.60;99.90;;;;;;5015752;28;38478;-80
2022/12/01 07:48:40;;;;;;;122.17;52.00;;;3.60;99.90;;;;;;5019003;28;38469;-79
2022/12/01 07:51:09;;;;;;;140.07;52.73;;;3.60;99.90;;;;;;5019828;28;38257;-80
2022/12/01 07:53:35;;;;;;;130.37;51.87;;;3.70;99.90;;;;;;5020512;28;37356;-80
2022/12/01 07:56:04;;;;;;;128.27;51.17;;;3.70;99.90;;;;;;5033047;28;39384;-80
2022/12/01 07:58:30;;;;;;;128.30;51.20;;;3.70;99.90;;;;;;5020993;28;36115;-79
2022/12/01 08:00:57;;;;;;;156.37;54.77;;;3.70;99.90;;;;;;5020209;28;35887;-80
2022/12/01 08:03:24;;;;;;;164.07;55.57;;;3.70;99.90;;;;;;5033689;28;39113;-80
2022/12/01 08:05:57;;;;;;;154.33;56.50;;;3.80;99.90;;;;;;5025466;28;38410;-80
2022/12/01 08:08:24;;;;;;;142.83;53.10;;;3.90;99.90;;;;;;5025747;28;36420;-80
2022/12/01 08:10:54;;;;;;;153.93;54.73;;;4.00;99.90;;;;;;5022892;28;37928;-80
2022/12/01 08:13:22;;;;;;;151.77;54.43;;;4.20;99.90;;;;;;5023298;28;37915;-80
2022/12/01 08:15:48;;;;;;;150.60;54.40;;;4.30;99.90;;;;;;5032549;28;38261;-80
2022/12/01 08:18:16;;;;;;;137.23;53.37;;;4.40;99.90;;;;;;5033101;28;20039;-79
2022/12/01 08:20:42;;;;;;;166.40;56.40;;;4.50;99.90;;;;;;5028224;28;39891;-81
2022/12/01 08:23:09;;;;;;;132.50;54.07;;;4.50;99.90;;;;;;5042412;28;37427;-82
2022/12/01 08:25:35;;;;;;;154.40;54.33;;;4.60;99.90;;;;;;5016003;28;38295;-81
2022/12/01 08:28:02;;;;;;;141.67;55.33;;;4.60;99.90;;;;;;5033786;28;37908;-82
2022/12/01 08:30:29;;;;;;;182.63;59.83;;;4.60;99.90;;;;;;5026370;28;49153;-82
2022/12/01 08:32:57;;;;;;;141.60;55.47;;;4.60;99.90;;;;;;5027959;28;37166;-82
2022/12/01 08:35:26;;;;;;;146.90;56.00;;;4.60;99.90;;;;;;5041311;28;38119;-81
2022/12/01 08:37:53;;;;;;;174.73;57.03;;;4.60;99.90;;;;;;5038889;28;37092;-82
2022/12/01 08:40:22;;;;;;;136.13;55.03;;;4.60;99.90;;;;;;5037979;28;37846;-83
2022/12/01 08:42:50;;;;;;;140.27;52.50;;;4.50;99.90;;;;;;5022087;28;37662;-82
2022/12/01 08:45:17;;;;;;;134.43;52.40;;;4.60;99.90;;;;;;5030273;28;37494;-82
2022/12/01 08:47:43;;;;;;;132.80;51.83;;;4.60;99.90;;;;;;5051248;28;39919;-80
2022/12/01 08:50:10;;;;;;;132.37;52.33;;;4.60;99.90;;;;;;5032431;28;38201;-82
2022/12/01 08:52:37;;;;;;;148.27;53.10;;;4.70;99.90;;;;;;5033095;28;37767;-81
2022/12/01 08:55:05;;;;;;;175.27;58.73;;;4.70;99.90;;;;;;5035247;28;38654;-82
2022/12/01 08:57:31;;;;;;;123.53;50.37;;;4.70;99.90;;;;;;5039950;28;47032;-82
2022/12/01 09:00:00;;;;;;;133.60;53.23;;;4.70;99.90;;;;;;5020948;28;39599;-81
2022/12/01 09:02:27;;;;;;;133.60;52.83;;;4.70;99.90;;;;;;5020165;28;37729;-81
2022/12/01 09:04:55;;;;;;;134.47;52.77;;;4.70;99.90;;;;;;5023402;28;37543;-82
2022/12/01 09:07:21;;;;;;;166.40;58.00;;;4.70;99.90;;;;;;5020733;28;36908;-81
2022/12/01 09:09:47;;;;;;;131.50;51.83;;;4.80;99.90;;;;;;5023204;28;39261;-81
2022/12/01 09:12:14;;;;;;;161.43;57.67;;;4.80;99.90;;;;;;5019091;28;40132;-81
2022/12/01 09:14:43;;;;;;;129.33;52.10;;;4.80;99.90;;;;;;5027426;28;38182;-81
2022/12/01 09:17:09;;;;;;;126.93;51.60;;;4.90;99.90;;;;;;5030808;28;36967;-82
2022/12/01 09:19:36;;;;;;;125.63;50.40;;;4.90;99.90;;;;;;5027673;28;37929;-82
2022/12/01 09:22:02;;;;;;;139.20;53.10;;;4.90;99.90;;;;;;5018928;28;37691;-82
2022/12/01 09:24:29;;;;;;;152.43;56.53;;;4.90;99.90;;;;;;5038167;28;37329;-81
2022/12/01 09:27:02;;;;;;;180.17;58.43;;;4.90;99.90;;;;;;5040265;28;36656;-81
2022/12/01 09:29:28;;;;;;;138.93;54.80;;;5.00;99.90;;;;;;5023840;28;50225;-81
2022/12/01 09:31:56;;;;;;;137.40;51.73;;;5.00;99.90;;;;;;5024445;28;36917;-81
2022/12/01 09:34:22;;;;;;;144.90;54.13;;;5.10;99.90;;;;;;5026276;28;39245;-81
2022/12/01 09:36:48;;;;;;;133.93;54.40;;;5.10;99.90;;;;;;5026487;28;36511;-82
2022/12/01 09:39:18;;;;;;;162.23;58.33;;;5.10;99.90;;;;;;5028281;28;38140;-82
2022/12/01 09:41:47;;;;;;;126.97;51.50;;;5.20;99.90;;;;;;5022504;28;37892;-82
2022/12/01 09:44:38;;;;;;;130.57;53.67;;;5.20;99.90;;;;;;5021900;28;39517;-80
2022/12/01 09:47:15;;;;;;;159.13;57.27;;;5.30;99.90;;;;;;5005414;28;37358;-80
2022/12/01 09:50:00;;;;;;;140.37;55.07;;;5.30;99.90;;;;;;5020752;28;39043;-80
2022/12/01 09:52:32;;;;;;;159.57;58.77;;;5.40;99.90;;;;;;5006939;28;38477;-80
2022/12/01 09:54:59;;;;;;;136.85;54.92;;;5.50;99.90;;;;;;5007016;28;37644;-81
2022/12/01 09:57:35;;;;;;;146.23;55.03;;;5.50;99.90;;;;;;5012042;28;37470;-80
2022/12/01 10:00:10;;;;;;;150.53;55.23;;;5.50;99.90;;;;;;5014126;28;39569;-79
2022/12/01 10:02:40;;;;;;;143.93;55.47;;;5.60;99.90;;;;;;5016335;28;47109;-80
2022/12/01 10:05:23;;;;;;;137.60;54.27;;;5.60;99.90;;;;;;5006594;28;37648;-80
2022/12/01 10:07:59;;;;;;;144.88;54.75;;;5.60;99.90;;;;;;5003371;28;36519;-79
2022/12/01 10:10:42;;;;;;;133.67;53.40;;;5.60;99.90;;;;;;5010404;28;40415;-79
2022/12/01 10:13:27;;;;;;;162.57;57.97;;;5.60;99.90;;;;;;5007952;28;39448;-80
2022/12/01 10:15:54;;;;;;;126.87;54.27;;;5.70;99.90;;;;;;5008005;28;37120;-80
2022/12/01 10:18:46;;;;;;;130.87;54.50;;;5.80;99.90;;;;;;5011379;28;37563;-80
2022/12/01 10:21:45;;;;;;;150.67;58.03;;;5.80;99.90;;;;;;5005587;28;37841;-80
2022/12/01 10:24:39;;;;;;;128.63;52.83;;;5.90;99.90;;;;;;5006750;28;38656;-79
2022/12/01 10:27:38;;;;;;;117.30;52.17;;;5.90;99.90;;;;;;5009551;28;39059;-79
2022/12/01 10:30:17;;;;;;;134.50;54.10;;;6.00;99.90;;;;;;5008696;28;36261;-80
2022/12/01 10:32:58;;;;;;;127.00;54.03;;;6.10;99.90;;;;;;5010828;28;38092;-79
2022/12/01 10:35:28;;;;;;;119.97;49.93;;;6.00;99.90;;;;;;5009971;28;38143;-80
2022/12/01 10:38:00;;;;;;;112.27;48.90;;;6.00;99.90;;;;;;5011197;28;38951;-80
2022/12/01 10:40:27;;;;;;;126.70;51.67;;;6.00;99.90;;;;;;5001866;28;37309;-80
2022/12/01 10:42:54;;;;;;;118.83;50.73;;;5.90;99.90;;;;;;5003086;28;39906;-80
2022/12/01 10:45:26;;;;;;;125.37;52.20;;;5.90;99.90;;;;;;5017250;28;38726;-80
2022/12/01 10:48:14;;;;;;;114.68;50.70;;;6.00;99.90;;;;;;5003998;28;38510;-80
2022/12/01 10:50:42;;;;;;;116.10;50.80;;;6.00;99.90;;;;;;4999738;28;47567;-81
2022/12/01 10:53:32;;;;;;;118.67;50.63;;;6.10;99.90;;;;;;5021812;28;39942;-80
2022/12/01 10:56:18;;;;;;;113.60;51.70;;;6.10;99.90;;;;;;5007499;28;38761;-80
2022/12/01 10:58:46;;;;;;;114.30;49.50;;;6.20;99.90;;;;;;5009850;28;48685;-80
2022/12/01 11:01:20;;;;;;;119.07;51.40;;;6.20;99.90;;;;;;5005036;28;36461;-80
2022/12/01 11:03:51;;;;;;;112.73;48.83;;;6.30;99.90;;;;;;5004750;28;39040;-80
2022/12/01 11:06:22;;;;;;;106.23;48.90;;;6.30;99.90;;;;;;5016679;28;39002;-79
2022/12/01 11:08:58;;;;;;;110.30;49.43;;;6.30;99.90;;;;;;5010389;28;38401;-80
2022/12/01 11:11:26;;;;;;;115.03;50.63;;;6.30;99.90;;;;;;5006752;28;36634;-79
2022/12/01 11:13:54;;;;;;;97.50;45.53;;;6.40;99.90;;;;;;5013010;28;38817;-80
2022/12/01 11:16:36;;;;;;;105.87;46.97;;;6.40;99.90;;;;;;5010730;28;39930;-80
2022/12/01 11:19:11;;;;;;;94.03;43.17;;;6.50;99.90;;;;;;5003557;28;38344;-80
2022/12/01 11:21:49;;;;;;;93.37;44.23;;;6.50;99.90;;;;;;5020760;28;47473;-80
2022/12/01 11:24:27;;;;;;;91.33;44.80;;;6.60;99.90;;;;;;5007533;28;37552;-79
2022/12/01 11:26:56;;;;;;;91.07;41.77;;;6.70;99.90;;;;;;5010915;28;39044;-80
2022/12/01 11:29:38;;;;;;;78.13;38.23;;;6.70;99.90;;;;;;5022009;28;36760;-80
2022/12/01 11:32:23;;;;;;;87.85;38.40;;;6.80;99.90;;;;;;5000407;28;36579;-80
2022/12/01 11:34:59;;;;;;;78.97;39.47;;;6.80;99.90;;;;;;5012278;28;43312;-81
2022/12/01 11:37:32;;;;;;;76.57;36.50;;;7.00;99.90;;;;;;5015440;28;38278;-81
2022/12/01 11:40:21;;;;;;;75.00;37.03;;;7.00;99.90;;;;;;5017503;28;37335;-81
2022/12/01 11:42:52;;;;;;;77.03;38.07;;;7.10;99.90;;;;;;5016086;28;48486;-81
2022/12/01 11:45:41;;;;;;;74.10;37.47;;;7.10;99.90;;;;;;5010036;28;40373;-80
2022/12/01 11:48:19;;;;;;;74.60;38.37;;;7.20;99.90;;;;;;5022030;28;39157;-81
2022/12/01 11:51:06;;;;;;;73.20;36.67;;;7.30;99.90;;;;;;5011297;28;38278;-81
2022/12/01 11:53:41;;;;;;;72.03;35.83;;;7.40;99.90;;;;;;5027186;28;47359;-81
2022/12/01 11:56:23;;;;;;;60.00;32.67;;;7.40;99.90;;;;;;5012158;28;39446;-81
2022/12/01 11:59:03;;;;;;;62.05;31.65;;;7.50;99.90;;;;;;5013716;28;37277;-82
2022/12/01 12:02:07;;;;;;;62.40;32.90;;;7.50;99.90;;;;;;5010480;28;46938;-81
2022/12/01 12:05:21;;;;;;;54.60;29.50;;;7.50;99.90;;;;;;5027607;28;47194;-80
2022/12/01 12:08:06;;;;;;;52.87;27.37;;;7.60;99.90;;;;;;4981552;28;47147;-81
2022/12/01 12:10:55;;;;;;;56.40;31.00;;;7.60;99.90;;;;;;5012566;28;46776;-81
2022/12/01 12:13:54;;;;;;;59.60;31.77;;;7.70;99.90;;;;;;5005198;28;37687;-80
2022/12/01 12:16:32;;;;;;;59.13;31.67;;;7.70;99.90;;;;;;5007511;28;35915;-81
2022/12/01 12:18:58;;;;;;;60.73;31.83;;;7.70;99.90;;;;;;5026717;28;39247;-81
2022/12/01 12:21:33;;;;;;;50.27;27.70;;;7.60;99.90;;;;;;5011495;28;36912;-81
2022/12/01 12:24:22;;;;;;;52.17;29.10;;;7.70;99.90;;;;;;5006583;28;39307;-81
2022/12/01 12:27:26;;;;;;;56.80;30.77;;;7.80;99.90;;;;;;5020711;28;47051;-80
2022/12/01 12:29:52;;;;;;;53.33;30.33;;;7.80;99.90;;;;;;5010577;28;48749;-81
2022/12/01 12:32:30;;;;;;;49.57;28.63;;;7.70;99.90;;;;;;5002359;28;37400;-80
2022/12/01 12:35:26;;;;;;;54.77;29.90;;;7.70;99.90;;;;;;5008665;28;37765;-80
2022/12/01 12:38:30;;;;;;;57.40;31.00;;;7.70;99.90;;;;;;5005376;28;47069;-80
2022/12/01 12:41:28;;;;;;;52.13;28.93;;;7.70;99.90;;;;;;5003285;28;48806;-81
2022/12/01 12:44:19;;;;;;;52.33;29.27;;;7.70;99.90;;;;;;5023476;28;47004;-80
2022/12/01 12:47:03;;;;;;;53.03;26.57;;;7.70;99.90;;;;;;5012417;28;47662;-81
2022/12/01 12:50:04;;;;;;;49.37;26.97;;;7.60;99.90;;;;;;5009251;28;49235;-80
2022/12/01 12:52:44;;;;;;;53.13;27.90;;;7.70;99.90;;;;;;5006117;28;46984;-80
2022/12/01 12:55:24;;;;;;;50.00;27.20;;;7.60;99.90;;;;;;5010168;28;37968;-79
2022/12/01 12:58:01;;;;;;;53.27;27.37;;;7.60;99.90;;;;;;5016029;28;37935;-81